Relevés horaires Chievres (Belgique)


Relevés horaires à Chievres - Samedi 30 Avr. 2022
Heure UTC1 Température [°C] Vent [km/h] Hum. [%] Pres.4 [hPa] Visi. [Km] Nébu. [octa] Préc.5 [mm] Cond.
2m. Res. Ros. Dir.2 Vit. Moy. Raf.3
23:00 4.0 4.0 1.9 N 3.7 -- 5.6 86 1026.2(0.0/3h) 20 -- -- --
22:00 4.4 3.2 2.0 N 5.6 -- 5.6 84 1026.2(0.1/3h) 20 -- -- --
21:00 5.3 5.3 2.6 N 3.7 -- 11.1 83 1026.2(0.2/3h) 20 -- -- --
20:00 6.3 6.3 3.1 NNO 3.7 -- 7.4 80 1026.2(0.1/3h) 20 -- -- --
19:00 8.1 7.4 3.6 N 5.6 -- 11.1 73 1026(0.1/3h) 20 -- -- --
18:00 10.1 9.3 3.8 N 7.4 -- 16.7 65 1025.9(-0.3/3h) 20 -- -- --
17:00 10.6 9.2 4.0 N 11.1 -- 14.8 64 1026(-0.6/3h) 20 -- -- --
16:00 11.3 10.3 4.3 NNE 9.3 -- 14.8 62 1026(-1.2/3h) 20 -- -- --
15:00 11.4 10.4 4.0 N 9.3 -- 16.7 60 1026.2(-1.6/3h) 20 -- -- --
14:00 12.5 12.1 3.6 N 7.4 -- 13.0 55 1026.5(-1.8/3h) 20 -- -- --
13:00 12.0 11.5 4.3 N 7.4 -- 16.7 59 1027.2(-1.4/3h) 20 -- -- --
12:00 11.5 10.9 4.1 NNE 7.4 -- 16.7 60 1027.9(-1.1/3h) 18 -- -- --
11:00 10.5 9.7 4.3 N 7.4 -- 14.8 65 1028.5(-0.6/3h) 20 -- -- --
10:00 11.2 10.2 4.9 NNE 9.3 -- 16.7 65 1028.7(-0.2/3h) 19 -- -- --
09:00 10.1 9.3 4.4 NNE 7.4 -- 16.7 68 1029(0.3/3h) 20 -- -- --
08:00 8.5 6.6 4.0 NE 11.1 -- 16.7 73 1029.2(0.8/3h) 20 -- -- --
07:00 7.4 5.3 4.2 NNE 11.1 -- 14.8 80 1029.2(0.8/3h) 20 -- -- --
06:00 5.7 4.1 3.5 NNE 7.4 -- 14.8 86 1028.9(0.5/3h) 19 -- -- --
05:00 4.5 3.3 2.8 NNE 5.6 -- 9.3 89 1028.5(0.1/3h) 17 -- -- --
04:00 4.0 2.7 2.4 N 5.6 -- 9.3 89 1028.4(0.0/3h) 13 -- -- --
03:00 5.3 4.2 3.1 NNE 5.6 -- 14.8 86 1028.4(0.0/3h) 18 -- -- --
02:00 6.2 4.7 3.3 NNE 7.4 -- 13.0 82 1028.4(0.1/3h) 19 -- -- --
01:00 7.3 5.5 3.6 NE 9.3 -- 14.8 77 1028.4(0.1/3h) 20 -- -- --
00:00 8.1 6.5 4.0 NNE 9.3 -- 16.7 75 1028.2(0.3/3h) 20 -- -- --

1 Coordinated Universal Time. Actuellement il est 21:00 locale et 20:00 UTC.

2 Le vent souffle depuis la direction indiquée vers la direction oposée.

3 Les rafales max. sont disponible 40 min après l'heure du relevé.

4 Pour les stations d'altitude (plus de 600m) le géopotentiel du niveau le plus proche de la pression obligatoire est indiqué.

5 Les stations disposant d'un diffuseur peuvent indiquer "trace". Cela signifie que des précipitations ont touchés le sol mais que la quantité est inférieure à 0.1 mm.

Récapitulatif de la journée
Température [°C] Vent [km/h] Ensoleillement4 [h] Precipitations totale5 [mm] Pression [Hpa]
Min1 Max.2 Moy.3 Max. Min Max.
3.8 13.4 0 16.7 0 h 0 min 0 1025.9 1029.2

1 Température minimale relevée entre 18:00 UTC la veille et 18:00 UTC le jour donné.

2 Température maximale relevée entre 06:00 UTC le jour donné et 06:00 UTC le lendemain.

3 Vent moyen de la journée basé sur les relevés horaires.

4 Ensoleillement en heures relevé entre 06:00 UTC la veille et 06:00 UTC le jour donné.

5 Précipitations totales tombées entre 06:00 UTC la jour donné et 06:00 UTC le lendemain.

Graphiques horaires